createdAt,value
2019-05-13T00:01:17.962Z,20.46
2019-05-13T00:03:44.091Z,20.46
2019-05-13T00:06:09.981Z,20.45
2019-05-13T00:08:35.971Z,20.45
2019-05-13T00:11:04.206Z,20.45
2019-05-13T00:13:27.989Z,20.46
2019-05-13T00:15:54.476Z,20.45
2019-05-13T00:18:20.028Z,20.45
2019-05-13T00:20:46.023Z,20.45
2019-05-13T00:23:14.065Z,20.45
2019-05-13T00:25:38.042Z,20.45
2019-05-13T00:28:04.399Z,20.45
2019-05-13T00:30:30.060Z,20.45
2019-05-13T00:32:56.077Z,20.45
2019-05-13T00:35:23.311Z,20.45
2019-05-13T00:37:48.070Z,20.45
2019-05-13T00:40:14.525Z,20.45
2019-05-13T00:42:40.088Z,20.44
2019-05-13T00:45:06.128Z,20.45
2019-05-13T00:47:34.106Z,20.44
2019-05-13T00:49:58.147Z,20.45
2019-05-13T00:52:24.218Z,20.45
2019-05-13T00:54:50.222Z,20.44
2019-05-13T00:57:16.232Z,20.45
2019-05-13T00:59:44.145Z,20.44
2019-05-13T01:02:08.249Z,20.44
2019-05-13T01:04:34.271Z,20.45
2019-05-13T01:07:00.271Z,20.45
2019-05-13T01:09:26.294Z,20.44
2019-05-13T01:11:53.705Z,20.44
2019-05-13T01:14:18.313Z,20.45
2019-05-13T01:16:44.531Z,20.44
2019-05-13T01:19:10.323Z,20.44
2019-05-13T01:21:36.370Z,20.44
2019-05-13T01:24:03.784Z,20.44
2019-05-13T01:26:28.388Z,20.44
2019-05-13T01:28:54.385Z,20.43
2019-05-13T01:31:20.409Z,20.44
2019-05-13T01:33:46.406Z,20.44
2019-05-13T01:36:13.435Z,20.44
2019-05-13T01:38:38.428Z,20.44
2019-05-13T01:41:04.647Z,20.44
2019-05-13T01:43:30.438Z,20.44
2019-05-13T01:45:56.437Z,20.43
2019-05-13T01:48:24.026Z,20.44
2019-05-13T01:50:48.451Z,20.44
2019-05-13T01:53:14.669Z,20.44
2019-05-13T01:55:40.494Z,20.43
2019-05-13T01:58:06.493Z,20.44
2019-05-13T02:00:35.271Z,20.44
2019-05-13T02:02:58.504Z,20.43
2019-05-13T02:05:24.509Z,20.44
2019-05-13T02:07:59.666Z,20.44
2019-05-13T02:10:16.521Z,20.43
2019-05-13T02:12:44.581Z,20.44
2019-05-13T02:15:08.571Z,20.44
2019-05-13T02:17:34.573Z,20.44
2019-05-13T02:20:00.585Z,20.44
2019-05-13T02:22:26.585Z,20.43
2019-05-13T02:24:53.535Z,20.44
2019-05-13T02:27:18.601Z,20.44
2019-05-13T02:29:44.623Z,20.43
2019-05-13T02:32:13.639Z,20.43
2019-05-13T02:34:36.612Z,20.43
2019-05-13T02:37:03.408Z,20.44
2019-05-13T02:39:28.624Z,20.43
2019-05-13T02:41:54.668Z,20.43
2019-05-13T02:44:22.579Z,20.43
2019-05-13T02:46:46.671Z,20.43
2019-05-13T02:49:12.689Z,20.42
2019-05-13T02:51:38.690Z,20.43
2019-05-13T02:54:04.683Z,20.43
2019-05-13T02:56:33.040Z,20.43
2019-05-13T02:58:56.709Z,20.43
2019-05-13T03:01:22.725Z,20.43
2019-05-13T03:03:52.543Z,20.43
2019-05-13T03:06:14.745Z,20.43
2019-05-13T03:08:49.096Z,20.42
2019-05-13T03:11:06.800Z,20.43
2019-05-13T03:13:33.207Z,20.43
2019-05-13T03:16:02.506Z,20.43
2019-05-13T03:18:24.829Z,20.43
2019-05-13T03:20:52.956Z,20.44
2019-05-13T03:23:16.837Z,20.43
2019-05-13T03:25:43.116Z,20.43
2019-05-13T03:28:08.862Z,20.43
2019-05-13T03:30:35.815Z,20.43
2019-05-13T03:33:07.962Z,20.43
2019-05-13T03:35:37.233Z,20.41
2019-05-13T03:38:03.749Z,20.43
2019-05-13T03:40:32.949Z,20.42
2019-05-13T03:42:56.373Z,20.42
2019-05-13T03:45:22.369Z,20.43
2019-05-13T03:47:48.384Z,20.42
2019-05-13T03:50:14.378Z,20.42
2019-05-13T03:52:43.121Z,20.42
2019-05-13T03:55:06.535Z,20.43
2019-05-13T03:57:33.774Z,20.42
2019-05-13T03:59:58.535Z,20.43
2019-05-13T04:02:24.579Z,20.43
2019-05-13T04:04:52.968Z,20.44
2019-05-13T04:07:16.620Z,20.44
2019-05-13T04:09:42.817Z,20.43
2019-05-13T04:12:08.673Z,20.44
2019-05-13T04:14:34.681Z,20.44
2019-05-13T04:17:02.954Z,20.43
2019-05-13T04:19:26.696Z,20.44
2019-05-13T04:21:53.021Z,20.43
2019-05-13T04:24:18.727Z,20.45
2019-05-13T04:26:44.742Z,20.44
2019-05-13T04:29:13.209Z,20.45
2019-05-13T04:31:36.788Z,20.45
2019-05-13T04:34:02.816Z,20.45
2019-05-13T04:36:31.837Z,20.44
2019-05-13T04:38:54.816Z,20.46
2019-05-13T04:41:22.972Z,20.46
2019-05-13T04:43:46.902Z,20.46
2019-05-13T04:46:14.106Z,20.47
2019-05-13T04:48:43.569Z,20.46
2019-05-13T04:51:04.981Z,20.48
2019-05-13T04:53:33.323Z,20.48
2019-05-13T04:55:57.002Z,20.49
2019-05-13T04:58:23.724Z,20.50
2019-05-13T05:00:56.061Z,20.50
2019-05-13T05:03:23.139Z,20.51
2019-05-13T05:05:42.060Z,20.51
2019-05-13T05:08:07.095Z,20.51
2019-05-13T05:10:38.292Z,20.51
2019-05-13T05:12:59.131Z,20.51
2019-05-13T05:15:25.148Z,20.51
2019-05-13T05:17:52.191Z,20.51
2019-05-13T05:20:17.163Z,20.51
2019-05-13T05:22:43.664Z,20.51
2019-05-13T05:25:11.659Z,20.51
2019-05-13T05:27:35.713Z,20.50
2019-05-13T05:30:02.180Z,20.52
2019-05-13T05:32:27.794Z,20.51
2019-05-13T05:34:53.780Z,20.51
2019-05-13T05:37:21.702Z,20.51
2019-05-13T05:39:45.821Z,20.51
2019-05-13T05:42:11.848Z,20.51
2019-05-13T05:44:37.845Z,20.51
2019-05-13T05:47:03.887Z,20.51
2019-05-13T05:49:31.996Z,20.50
2019-05-13T05:51:56.064Z,20.50
2019-05-13T05:54:22.077Z,20.50
2019-05-13T05:56:48.082Z,20.50
2019-05-13T05:59:14.073Z,20.50
2019-05-13T06:01:41.575Z,20.50
2019-05-13T06:06:36.406Z,20.50
2019-05-13T06:09:02.430Z,20.50
2019-05-13T06:11:28.443Z,20.50
2019-05-13T06:13:54.727Z,20.50
2019-05-13T06:16:21.835Z,20.49
2019-05-13T06:18:49.064Z,20.49
2019-05-13T06:21:15.187Z,20.50
2019-05-13T06:23:41.835Z,20.49
2019-05-13T06:26:07.207Z,20.50
2019-05-13T06:28:33.222Z,20.49
2019-05-13T06:31:02.303Z,20.49
2019-05-13T06:33:25.275Z,20.49
2019-05-13T06:35:52.128Z,20.49
2019-05-13T06:38:17.577Z,20.49
2019-05-13T06:40:43.573Z,20.49
2019-05-13T06:43:11.845Z,20.49
2019-05-13T06:45:35.622Z,20.48
2019-05-13T06:48:02.404Z,20.49
2019-05-13T06:50:27.666Z,20.49
2019-05-13T06:52:53.743Z,20.48
2019-05-13T06:55:21.236Z,20.49
2019-05-13T06:57:45.733Z,20.49
2019-05-13T07:00:12.282Z,20.48
2019-05-13T07:02:37.805Z,20.48
2019-05-13T07:05:03.827Z,20.48
2019-05-13T07:07:31.845Z,20.48
2019-05-13T07:09:55.899Z,20.49
2019-05-13T07:12:22.122Z,20.48
2019-05-13T07:14:48.030Z,20.49
2019-05-13T07:17:14.159Z,20.48
2019-05-13T07:19:41.453Z,20.49
2019-05-13T07:22:06.311Z,20.48
2019-05-13T07:24:32.664Z,20.47
2019-05-13T07:26:58.480Z,20.49
2019-05-13T07:29:24.512Z,20.49
2019-05-13T07:31:52.273Z,20.48
2019-05-13T07:34:16.762Z,20.48
2019-05-13T07:36:42.836Z,20.48
2019-05-13T07:39:08.837Z,20.48
2019-05-13T07:41:39.187Z,20.48
2019-05-13T07:44:02.588Z,20.48
2019-05-13T07:46:27.010Z,20.48
2019-05-13T07:48:53.068Z,20.48
2019-05-13T07:51:19.100Z,20.48
2019-05-13T07:53:45.118Z,20.47
2019-05-13T07:56:12.446Z,20.48
2019-05-13T07:58:37.836Z,20.48
2019-05-13T08:01:03.327Z,20.47
2019-05-13T08:03:31.563Z,20.48
2019-05-13T08:05:55.487Z,20.48
2019-05-13T08:08:22.118Z,20.48
2019-05-13T08:10:47.623Z,20.48
2019-05-13T08:13:13.654Z,20.47
2019-05-13T08:15:41.953Z,20.47
2019-05-13T08:18:05.710Z,20.47
2019-05-13T08:20:32.764Z,20.47
2019-05-13T08:22:57.842Z,20.47
2019-05-13T08:25:23.849Z,20.47
2019-05-13T08:27:51.434Z,20.47
2019-05-13T08:30:18.130Z,20.47
2019-05-13T08:32:42.091Z,20.46
2019-05-13T08:35:09.169Z,20.47
2019-05-13T08:37:33.968Z,20.46
2019-05-13T08:40:01.580Z,20.46
2019-05-13T08:42:25.990Z,20.45
2019-05-13T08:44:52.532Z,20.46
2019-05-13T08:47:18.068Z,20.46
2019-05-13T08:49:44.112Z,20.45
2019-05-13T08:52:12.141Z,20.45
2019-05-13T08:54:36.176Z,20.45
2019-05-13T08:57:02.770Z,20.46
2019-05-13T08:59:28.201Z,20.44
2019-05-13T09:01:54.200Z,20.46
2019-05-13T09:04:22.266Z,20.45
2019-05-13T09:06:46.236Z,20.45
2019-05-13T09:09:12.426Z,20.46
2019-05-13T09:11:38.476Z,20.45
2019-05-13T09:14:04.517Z,20.45
2019-05-13T09:16:31.993Z,20.45
2019-05-13T09:18:56.502Z,20.45
2019-05-13T09:21:22.651Z,20.45
2019-05-13T09:23:48.513Z,20.44
2019-05-13T09:26:14.513Z,20.44
2019-05-13T09:28:41.736Z,20.45
2019-05-13T09:31:06.552Z,20.45
2019-05-13T09:33:32.900Z,20.44
2019-05-13T09:35:58.570Z,20.44
2019-05-13T09:38:24.582Z,20.44
2019-05-13T09:40:53.103Z,20.44
2019-05-13T09:43:16.591Z,20.45
2019-05-13T09:45:42.612Z,20.44
2019-05-13T09:48:08.599Z,20.44
2019-05-13T09:50:36.213Z,20.44
2019-05-13T09:53:02.750Z,20.44
2019-05-13T09:55:29.276Z,20.44
2019-05-13T09:57:52.677Z,20.44
2019-05-13T10:00:18.631Z,20.44
2019-05-13T10:02:44.653Z,20.44
2019-05-13T10:05:11.520Z,20.43
2019-05-13T10:07:36.672Z,20.43
2019-05-13T10:10:02.699Z,20.43
2019-05-13T10:12:28.707Z,20.44
2019-05-13T10:14:54.728Z,20.44
2019-05-13T10:17:22.106Z,20.44
2019-05-13T10:19:46.742Z,20.43
2019-05-13T10:22:12.818Z,20.43
2019-05-13T10:24:38.756Z,20.43
2019-05-13T10:27:04.796Z,20.43
2019-05-13T10:29:31.692Z,20.43
2019-05-13T10:31:56.806Z,20.42
2019-05-13T10:34:22.937Z,20.43
2019-05-13T10:36:51.239Z,20.41
2019-05-13T10:39:14.820Z,20.43
2019-05-13T10:41:42.383Z,20.43
2019-05-13T10:44:07.081Z,20.43
2019-05-13T10:46:33.077Z,20.43
2019-05-13T10:49:01.708Z,20.43
2019-05-13T10:51:25.516Z,20.44
2019-05-13T10:53:53.614Z,20.43
2019-05-13T10:56:17.679Z,20.43
2019-05-13T10:58:43.718Z,20.43
2019-05-13T11:01:11.583Z,20.43
2019-05-13T11:03:35.808Z,20.43
2019-05-13T11:06:02.537Z,20.42
2019-05-13T11:08:28.529Z,20.43
2019-05-13T11:10:55.674Z,20.43
2019-05-13T11:13:23.257Z,20.43
2019-05-13T11:15:47.698Z,20.43
2019-05-13T11:18:19.097Z,20.43
2019-05-13T11:20:41.937Z,20.44
2019-05-13T11:23:05.755Z,20.43
2019-05-13T11:25:32.383Z,20.43
2019-05-13T11:28:01.678Z,20.44
2019-05-13T11:30:26.057Z,20.44
2019-05-13T11:32:52.047Z,20.44
2019-05-13T11:35:18.073Z,20.43
2019-05-13T11:37:44.063Z,20.44
2019-05-13T11:40:12.000Z,20.43
2019-05-13T11:42:36.216Z,20.43
2019-05-13T11:45:02.190Z,20.44
2019-05-13T11:47:28.207Z,20.43
2019-05-13T11:49:54.206Z,20.44
2019-05-13T11:52:22.690Z,20.44
2019-05-13T11:54:46.803Z,20.44
2019-05-13T11:57:12.898Z,20.44
2019-05-13T11:59:42.380Z,20.45
2019-05-13T12:02:05.058Z,20.44
2019-05-13T12:04:34.579Z,20.44
2019-05-13T12:06:56.951Z,20.45
2019-05-13T12:09:22.965Z,20.44
2019-05-13T12:11:48.960Z,20.44
2019-05-13T12:14:42.412Z,20.44
2019-05-13T12:16:42.337Z,20.44
2019-05-13T12:19:07.133Z,20.45
2019-05-13T12:21:33.232Z,20.46
2019-05-13T12:24:06.645Z,20.46
2019-05-13T12:26:25.243Z,20.46
2019-05-13T12:28:53.529Z,20.47
2019-05-13T12:31:17.381Z,20.46
2019-05-13T12:33:44.047Z,20.47
2019-05-13T12:36:15.374Z,20.47
2019-05-13T12:38:35.466Z,20.47
2019-05-13T12:41:05.037Z,20.48
2019-05-13T12:43:27.597Z,20.48
2019-05-13T12:45:53.702Z,20.48
2019-05-13T12:48:22.669Z,20.49
2019-05-13T12:50:45.843Z,20.49
2019-05-13T12:53:12.943Z,20.49
2019-05-13T12:55:38.253Z,20.50
2019-05-13T12:58:04.334Z,20.50
2019-05-13T13:00:32.922Z,20.50
2019-05-13T13:02:56.354Z,20.51
2019-05-13T13:05:24.811Z,20.51
2019-05-13T13:08:13.605Z,20.49
2019-05-13T13:10:14.895Z,20.50
2019-05-13T13:12:42.102Z,20.52
2019-05-13T13:15:31.991Z,20.53
2019-05-13T13:17:32.447Z,20.52
2019-05-13T13:20:06.199Z,20.53
2019-05-13T13:22:25.325Z,20.53
2019-05-13T13:24:52.983Z,20.53
2019-05-13T13:27:25.915Z,20.53
2019-05-13T13:29:43.278Z,20.53
2019-05-13T13:32:08.633Z,20.54
2019-05-13T13:34:34.626Z,20.54
2019-05-13T13:37:04.694Z,20.54
2019-05-13T13:39:26.682Z,20.54
2019-05-13T13:41:53.605Z,20.54
2019-05-13T13:44:18.675Z,20.54
2019-05-13T13:46:49.528Z,20.53
2019-05-13T13:49:13.019Z,20.53
2019-05-13T13:51:36.702Z,20.53
2019-05-13T13:54:02.697Z,20.53
2019-05-13T13:56:28.721Z,20.53
2019-05-13T13:58:54.777Z,20.53
2019-05-13T14:01:26.915Z,20.52
2019-05-13T14:03:46.769Z,20.52
2019-05-13T14:06:12.891Z,20.52
2019-05-13T14:08:41.399Z,20.52
2019-05-13T14:11:04.814Z,20.52
2019-05-13T14:13:32.376Z,20.50
2019-05-13T14:15:56.929Z,20.52
2019-05-13T14:18:26.682Z,20.51
2019-05-13T14:20:48.940Z,20.51
2019-05-13T14:23:15.171Z,20.52
2019-05-13T14:25:42.071Z,20.51
2019-05-13T14:28:07.190Z,20.52
2019-05-13T14:30:33.197Z,20.52
2019-05-13T14:32:59.204Z,20.53
2019-05-13T14:35:25.223Z,20.52
2019-05-13T14:37:51.859Z,20.52
2019-05-13T14:40:17.235Z,20.52
2019-05-13T14:42:43.281Z,20.51
2019-05-13T14:45:09.272Z,20.51
2019-05-13T14:47:35.302Z,20.50
2019-05-13T14:50:02.088Z,20.51
2019-05-13T14:52:27.451Z,20.50
2019-05-13T14:54:53.432Z,20.50
2019-05-13T14:57:21.545Z,20.50
2019-05-13T14:59:45.505Z,20.49
2019-05-13T15:02:12.061Z,20.49
2019-05-13T15:04:37.725Z,20.49
2019-05-13T15:07:03.747Z,20.49
2019-05-13T15:09:31.420Z,20.49
2019-05-13T15:11:55.966Z,20.49
2019-05-13T15:14:22.147Z,20.49
2019-05-13T15:17:02.430Z,20.49
2019-05-13T15:19:14.089Z,20.50
2019-05-13T15:21:41.254Z,20.49
2019-05-13T15:24:06.250Z,20.51
2019-05-13T15:26:32.146Z,20.50
2019-05-13T15:29:01.537Z,20.51
2019-05-13T15:31:24.215Z,20.52
2019-05-13T15:33:52.360Z,20.52
2019-05-13T15:36:17.411Z,20.52
2019-05-13T15:38:43.426Z,20.53
2019-05-13T15:41:14.732Z,20.53
2019-05-13T15:43:35.459Z,20.53
2019-05-13T15:46:02.016Z,20.54
2019-05-13T15:48:27.524Z,20.54
2019-05-13T15:50:53.544Z,20.54
2019-05-13T15:53:21.404Z,20.54
2019-05-13T15:55:45.545Z,20.54
2019-05-13T15:58:11.934Z,20.54
2019-05-13T16:00:37.559Z,20.54
2019-05-13T16:03:03.696Z,20.55
2019-05-13T16:05:31.285Z,20.56
2019-05-13T16:07:55.714Z,20.56
2019-05-13T16:10:21.909Z,20.56
2019-05-13T16:12:47.911Z,20.57
2019-05-13T16:15:15.828Z,20.56
2019-05-13T16:17:53.623Z,20.57
2019-05-13T16:20:06.001Z,20.56
2019-05-13T16:22:32.005Z,20.58
2019-05-13T16:24:58.039Z,20.57
2019-05-13T16:27:24.077Z,20.58
2019-05-13T16:29:51.528Z,20.60
2019-05-13T16:32:16.099Z,20.59
2019-05-13T16:34:42.492Z,20.61
2019-05-13T16:37:08.119Z,20.61
2019-05-13T16:39:34.178Z,20.63
2019-05-13T16:42:00.168Z,20.64
2019-05-13T16:44:26.191Z,20.65
2019-05-13T16:46:52.196Z,20.66
2019-05-13T16:49:18.206Z,20.68
2019-05-13T16:51:44.340Z,20.69
2019-05-13T16:54:10.347Z,20.70
2019-05-13T16:56:36.411Z,20.71
2019-05-13T16:59:02.393Z,20.72
2019-05-13T17:01:28.719Z,20.72
2019-05-13T17:03:55.047Z,20.72
2019-05-13T17:06:21.689Z,20.72
2019-05-13T17:08:47.069Z,20.72
2019-05-13T17:11:13.087Z,20.72
2019-05-13T17:13:39.106Z,20.72
2019-05-13T17:16:05.103Z,20.72
2019-05-13T17:18:32.393Z,20.72
2019-05-13T17:20:57.122Z,20.72
2019-05-13T17:23:23.149Z,20.72
2019-05-13T17:25:51.793Z,20.73
2019-05-13T17:28:15.171Z,20.72
2019-05-13T17:30:41.182Z,20.73
2019-05-13T17:33:07.168Z,20.72
2019-05-13T17:35:33.192Z,20.73
2019-05-13T17:37:59.195Z,20.72
2019-05-13T17:40:25.283Z,20.72
2019-05-13T17:42:51.295Z,20.72
2019-05-13T17:45:17.299Z,20.72
2019-05-13T17:47:43.326Z,20.72
2019-05-13T17:50:11.515Z,20.71
2019-05-13T17:52:35.354Z,20.72
2019-05-13T17:55:01.373Z,20.71
2019-05-13T17:57:27.411Z,20.72
2019-05-13T17:59:53.408Z,20.71
2019-05-13T18:02:19.504Z,20.71
2019-05-13T18:04:45.634Z,20.71
2019-05-13T18:07:12.209Z,20.71
2019-05-13T18:09:37.723Z,20.70
2019-05-13T18:12:03.739Z,20.70
2019-05-13T18:14:29.982Z,20.70
2019-05-13T18:16:57.191Z,20.70
2019-05-13T18:19:22.223Z,20.70
2019-05-13T18:21:48.021Z,20.70
2019-05-13T18:24:14.038Z,20.71
2019-05-13T18:26:41.957Z,20.71
2019-05-13T18:29:06.224Z,20.72
2019-05-13T18:31:32.232Z,20.73
2019-05-13T18:33:58.237Z,20.73
2019-05-13T18:36:24.255Z,20.73
2019-05-13T18:38:50.416Z,20.73
2019-05-13T18:41:16.439Z,20.73
2019-05-13T18:43:42.436Z,20.72
2019-05-13T18:46:08.467Z,20.73
2019-05-13T18:48:34.528Z,20.73
2019-05-13T18:51:01.315Z,20.72
2019-05-13T18:53:26.562Z,20.72
2019-05-13T18:55:52.930Z,20.72
2019-05-13T18:58:18.957Z,20.71
2019-05-13T19:00:44.981Z,20.71
2019-05-13T19:03:12.454Z,20.71
2019-05-13T19:05:37.298Z,20.70
2019-05-13T19:08:03.305Z,20.71
2019-05-13T19:10:31.198Z,20.70
2019-05-13T19:12:57.854Z,20.70
2019-05-13T19:15:21.506Z,20.71
2019-05-13T19:17:47.525Z,20.71
2019-05-13T19:20:13.533Z,20.71
2019-05-13T19:22:41.288Z,20.71
2019-05-13T19:25:05.652Z,20.71
2019-05-13T19:27:32.141Z,20.71
2019-05-13T19:29:57.690Z,20.72
2019-05-13T19:32:23.783Z,20.72
2019-05-13T19:34:51.665Z,20.72
2019-05-13T19:37:15.812Z,20.73
2019-05-13T19:39:42.481Z,20.73
2019-05-13T19:42:08.476Z,20.73
2019-05-13T19:44:34.491Z,20.73
2019-05-13T19:47:02.007Z,20.73
2019-05-13T19:49:32.616Z,20.74
2019-05-13T19:51:52.590Z,20.74
2019-05-13T19:54:18.642Z,20.74
2019-05-13T19:56:44.664Z,20.74
2019-05-13T19:59:12.432Z,20.74
2019-05-13T20:01:36.762Z,20.75
2019-05-13T20:04:03.584Z,20.74
2019-05-13T20:06:31.845Z,20.74
2019-05-13T20:08:55.690Z,20.75
2019-05-13T20:11:21.925Z,20.76
2019-05-13T20:13:48.112Z,20.77
2019-05-13T20:16:14.111Z,20.77
2019-05-13T20:18:42.096Z,20.78
2019-05-13T20:21:10.486Z,20.79
2019-05-13T20:23:34.188Z,20.79
2019-05-13T20:26:00.315Z,20.78
2019-05-13T20:28:26.330Z,20.78
2019-05-13T20:30:52.334Z,20.78
2019-05-13T20:33:18.356Z,20.77
2019-05-13T20:35:44.362Z,20.76
2019-05-13T20:38:11.592Z,20.76
2019-05-13T20:40:36.552Z,20.75
2019-05-13T20:43:02.732Z,20.75
2019-05-13T20:45:31.102Z,20.75
2019-05-13T20:47:54.724Z,20.75
2019-05-13T20:50:21.712Z,20.74
2019-05-13T20:52:46.737Z,20.74
2019-05-13T20:55:12.760Z,20.73
2019-05-13T20:57:38.753Z,20.74
2019-05-13T21:00:04.769Z,20.74
2019-05-13T21:02:31.959Z,20.74
2019-05-13T21:04:56.798Z,20.73
2019-05-13T21:07:22.815Z,20.73
2019-05-13T21:09:51.119Z,20.73
2019-05-13T21:12:14.841Z,20.72
2019-05-13T21:14:41.419Z,20.72
2019-05-13T21:17:06.888Z,20.73
2019-05-13T21:19:39.293Z,20.72
2019-05-13T21:21:58.955Z,20.72
2019-05-13T21:24:24.954Z,20.72
2019-05-13T21:26:51.268Z,20.71
2019-05-13T21:29:17.019Z,20.71
2019-05-13T21:31:43.026Z,20.75
2019-05-13T21:34:09.066Z,20.80
2019-05-13T21:36:35.070Z,20.79
2019-05-13T21:39:02.973Z,20.77
2019-05-13T21:41:28.996Z,20.76
2019-05-13T21:43:54.987Z,20.76
2019-05-13T21:46:21.320Z,20.75
2019-05-13T21:48:47.152Z,20.74
2019-05-13T21:51:13.564Z,20.74
2019-05-13T21:53:41.258Z,20.74
2019-05-13T21:56:05.269Z,20.73
2019-05-13T21:58:31.410Z,20.73
2019-05-13T22:00:57.328Z,20.73
2019-05-13T22:03:23.352Z,20.72
2019-05-13T22:05:51.292Z,20.72
2019-05-13T22:08:15.361Z,20.71
2019-05-13T22:10:41.696Z,20.71
2019-05-13T22:13:07.395Z,20.70
2019-05-13T22:15:33.398Z,20.70
2019-05-13T22:17:59.396Z,20.69
2019-05-13T22:20:25.415Z,20.69
2019-05-13T22:22:52.040Z,20.69
2019-05-13T22:25:17.406Z,20.68
2019-05-13T22:27:43.427Z,20.68
2019-05-13T22:30:11.698Z,20.67
2019-05-13T22:32:35.447Z,20.67
2019-05-13T22:35:01.955Z,20.66
2019-05-13T22:37:27.515Z,20.67
2019-05-13T22:39:53.519Z,20.66
2019-05-13T22:42:21.560Z,20.66
2019-05-13T22:44:45.637Z,20.65
2019-05-13T22:47:13.425Z,20.65
2019-05-13T22:49:37.657Z,20.64
2019-05-13T22:52:03.652Z,20.65
2019-05-13T22:54:31.638Z,20.64
2019-05-13T22:56:55.674Z,20.64
2019-05-13T22:59:21.669Z,20.64
2019-05-13T23:01:47.699Z,20.64
2019-05-13T23:04:13.704Z,20.63
2019-05-13T23:06:39.716Z,20.62
2019-05-13T23:09:05.722Z,20.62
2019-05-13T23:11:31.719Z,20.62
2019-05-13T23:14:07.338Z,20.62
2019-05-13T23:16:23.743Z,20.62
2019-05-13T23:18:51.311Z,20.61
2019-05-13T23:21:15.751Z,20.61
2019-05-13T23:23:41.746Z,20.60
2019-05-13T23:26:07.777Z,20.60
2019-05-13T23:28:33.769Z,20.61
2019-05-13T23:31:01.674Z,20.60
2019-05-13T23:33:25.796Z,20.60
2019-05-13T23:35:51.798Z,20.60
2019-05-13T23:38:17.818Z,20.60
2019-05-13T23:40:43.812Z,20.59
2019-05-13T23:43:11.304Z,20.59
2019-05-13T23:45:35.822Z,20.59
2019-05-13T23:48:01.822Z,20.59
2019-05-13T23:50:27.828Z,20.59
2019-05-13T23:52:53.817Z,20.58
2019-05-13T23:55:19.825Z,20.58
2019-05-13T23:57:45.821Z,20.58
